createdAt,value
2017-06-11T00:01:10.995Z,101735
2017-06-11T00:03:39.935Z,101745
2017-06-11T00:06:08.085Z,101739
2017-06-11T00:08:36.256Z,101747
2017-06-11T00:11:05.200Z,101751
2017-06-11T00:13:33.392Z,101746
2017-06-11T00:16:01.547Z,101737
2017-06-11T00:18:29.755Z,101737
2017-06-11T00:20:57.915Z,101736
2017-06-11T00:23:26.077Z,101736
2017-06-11T00:25:54.316Z,101744
2017-06-11T00:28:22.488Z,101738
2017-06-11T00:30:50.657Z,101745
2017-06-11T00:33:18.848Z,101728
2017-06-11T00:35:46.994Z,101726
2017-06-11T00:38:15.161Z,101728
2017-06-11T00:40:43.374Z,101735
2017-06-11T00:43:11.529Z,101716
2017-06-11T00:45:39.704Z,101714
2017-06-11T00:48:07.907Z,101710
2017-06-11T00:50:36.072Z,101712
2017-06-11T00:53:04.265Z,101707
2017-06-11T00:55:32.464Z,101704
2017-06-11T00:58:01.386Z,101704
2017-06-11T01:00:29.533Z,101714
2017-06-11T01:02:58.481Z,101705
2017-06-11T01:05:26.652Z,101702
2017-06-11T01:07:54.816Z,101708
2017-06-11T01:10:23.028Z,101702
2017-06-11T01:12:51.204Z,101703
2017-06-11T01:15:19.380Z,101702
2017-06-11T01:17:47.554Z,101698
2017-06-11T01:20:15.752Z,101697
2017-06-11T01:22:44.685Z,101693
2017-06-11T01:25:12.901Z,101695
2017-06-11T01:27:41.056Z,101693
2017-06-11T01:30:09.246Z,101690
2017-06-11T01:32:37.545Z,101693
2017-06-11T01:35:06.492Z,101696
2017-06-11T01:37:34.680Z,101682
2017-06-11T01:40:02.894Z,101681
2017-06-11T01:42:31.832Z,101679
2017-06-11T01:45:00.005Z,101675
2017-06-11T01:47:28.207Z,101670
2017-06-11T01:49:56.379Z,101674
2017-06-11T01:52:24.549Z,101681
2017-06-11T01:54:52.740Z,101679
2017-06-11T01:57:20.890Z,101681
2017-06-11T01:59:49.039Z,101682
2017-06-11T02:02:17.355Z,101674
2017-06-11T02:04:45.510Z,101677
2017-06-11T02:07:13.661Z,101678
2017-06-11T02:09:41.854Z,101681
2017-06-11T02:12:10.006Z,101675
2017-06-11T02:14:38.178Z,101669
2017-06-11T02:17:06.361Z,101663
2017-06-11T02:19:34.510Z,101666
2017-06-11T02:22:03.425Z,101668
2017-06-11T02:24:31.611Z,101663
2017-06-11T02:26:59.767Z,101672
2017-06-11T02:29:27.956Z,101667
2017-06-11T02:31:56.153Z,101664
2017-06-11T02:34:24.329Z,101668
2017-06-11T02:36:52.493Z,101666
2017-06-11T02:39:20.701Z,101652
2017-06-11T02:41:48.849Z,101648
2017-06-11T02:44:17.010Z,101655
2017-06-11T02:46:45.980Z,101663
2017-06-11T02:49:14.149Z,101657
2017-06-11T02:51:42.321Z,101645
2017-06-11T02:54:10.502Z,101653
2017-06-11T02:56:38.668Z,101645
2017-06-11T02:59:06.822Z,101646
2017-06-11T03:01:34.998Z,101645
2017-06-11T03:04:03.161Z,101644
2017-06-11T03:06:31.789Z,101643
2017-06-11T03:08:59.989Z,101639
2017-06-11T03:11:28.907Z,101642
2017-06-11T03:13:57.080Z,101639
2017-06-11T03:16:25.286Z,101640
2017-06-11T03:18:53.452Z,101636
2017-06-11T03:21:21.624Z,101626
2017-06-11T03:23:49.817Z,101633
2017-06-11T03:26:17.988Z,101635
2017-06-11T03:28:46.158Z,101641
2017-06-11T03:31:14.335Z,101628
2017-06-11T03:33:42.486Z,101630
2017-06-11T03:36:10.637Z,101628
2017-06-11T03:38:38.835Z,101629
2017-06-11T03:41:06.986Z,101621
2017-06-11T03:43:35.146Z,101622
2017-06-11T03:46:04.106Z,101621
2017-06-11T03:48:32.249Z,101620
2017-06-11T03:51:00.416Z,101617
2017-06-11T03:53:28.611Z,101622
2017-06-11T03:55:56.776Z,101621
2017-06-11T03:58:24.922Z,101620
2017-06-11T04:00:53.861Z,101624
2017-06-11T04:03:22.030Z,101623
2017-06-11T04:05:50.183Z,101612
2017-06-11T04:08:18.358Z,101624
2017-06-11T04:10:46.504Z,101615
2017-06-11T04:13:15.441Z,101601
2017-06-11T04:15:43.633Z,101612
2017-06-11T04:18:11.804Z,101603
2017-06-11T04:20:39.984Z,101602
2017-06-11T04:23:08.189Z,101603
2017-06-11T04:25:37.109Z,101598
2017-06-11T04:28:05.262Z,101604
2017-06-11T04:30:34.230Z,101605
2017-06-11T04:33:02.406Z,101606
2017-06-11T04:35:30.579Z,101603
2017-06-11T04:37:58.757Z,101601
2017-06-11T04:40:26.934Z,101601
2017-06-11T04:42:55.101Z,101599
2017-06-11T04:45:23.678Z,101601
2017-06-11T04:47:51.851Z,101597
2017-06-11T04:50:20.022Z,101591
2017-06-11T04:52:48.213Z,101593
2017-06-11T04:55:16.362Z,101585
2017-06-11T04:57:44.505Z,101593
2017-06-11T05:00:12.680Z,101587
2017-06-11T05:02:40.843Z,101592
2017-06-11T05:05:09.009Z,101586
2017-06-11T05:07:37.966Z,101590
2017-06-11T05:10:06.115Z,101583
2017-06-11T05:12:34.283Z,101584
2017-06-11T05:15:02.776Z,101578
2017-06-11T05:17:30.940Z,101581
2017-06-11T05:19:59.104Z,101575
2017-06-11T05:22:27.279Z,101582
2017-06-11T05:24:55.441Z,101578
2017-06-11T05:27:23.604Z,101567
2017-06-11T05:29:52.542Z,101576
2017-06-11T05:32:20.694Z,101564
2017-06-11T05:34:48.841Z,101574
2017-06-11T05:37:17.913Z,101570
2017-06-11T05:39:46.058Z,101559
2017-06-11T05:42:14.335Z,101563
2017-06-11T05:44:42.509Z,101565
2017-06-11T05:47:10.659Z,101569
2017-06-11T05:49:38.824Z,101563
2017-06-11T05:52:07.022Z,101560
2017-06-11T05:54:35.191Z,101560
2017-06-11T05:57:03.352Z,101558
2017-06-11T05:59:31.544Z,101560
2017-06-11T06:01:59.686Z,101552
2017-06-11T06:04:28.619Z,101553
2017-06-11T06:06:56.792Z,101554
2017-06-11T06:09:24.939Z,101556
2017-06-11T06:11:53.101Z,101542
2017-06-11T06:14:22.090Z,101552
2017-06-11T06:16:51.016Z,101558
2017-06-11T06:19:19.176Z,101549
2017-06-11T06:21:47.360Z,101551
2017-06-11T06:24:15.524Z,101556
2017-06-11T06:26:43.673Z,101559
2017-06-11T06:29:12.619Z,101562
2017-06-11T06:31:40.780Z,101556
2017-06-11T06:34:08.943Z,101564
2017-06-11T06:36:37.133Z,101565
2017-06-11T06:39:05.298Z,101560
2017-06-11T06:41:33.456Z,101562
2017-06-11T06:44:01.640Z,101566
2017-06-11T06:46:29.790Z,101560
2017-06-11T06:48:58.790Z,101552
2017-06-11T06:51:27.756Z,101552
2017-06-11T06:53:55.913Z,101560
2017-06-11T06:56:24.099Z,101560
2017-06-11T06:58:52.293Z,101564
2017-06-11T07:01:20.465Z,101557
2017-06-11T07:03:48.629Z,101555
2017-06-11T07:06:16.810Z,101555
2017-06-11T07:08:44.965Z,101561
2017-06-11T07:11:13.147Z,101554
2017-06-11T07:13:41.322Z,101558
2017-06-11T07:16:09.485Z,101553
2017-06-11T07:18:37.653Z,101546
2017-06-11T07:21:05.825Z,101553
2017-06-11T07:23:37.982Z,101547
2017-06-11T07:26:06.202Z,101547
2017-06-11T07:28:34.373Z,101538
2017-06-11T07:31:02.513Z,101530
2017-06-11T07:33:30.685Z,101538
2017-06-11T07:35:59.649Z,101530
2017-06-11T07:38:27.797Z,101538
2017-06-11T07:40:55.949Z,101535
2017-06-11T07:43:24.153Z,101532
2017-06-11T07:45:52.299Z,101525
2017-06-11T07:48:20.460Z,101531
2017-06-11T07:50:48.656Z,101533
2017-06-11T07:53:16.801Z,101531
2017-06-11T07:55:45.737Z,101528
2017-06-11T07:58:13.924Z,101522
2017-06-11T08:00:42.065Z,101529
2017-06-11T08:03:10.237Z,101521
2017-06-11T08:05:38.437Z,101524
2017-06-11T08:08:06.594Z,101514
2017-06-11T08:10:34.739Z,101524
2017-06-11T08:13:02.916Z,101515
2017-06-11T08:15:31.084Z,101520
2017-06-11T08:17:59.229Z,101509
2017-06-11T08:20:27.401Z,101509
2017-06-11T08:22:55.558Z,101512
2017-06-11T08:25:23.706Z,101507
2017-06-11T08:27:51.882Z,101511
2017-06-11T08:30:20.031Z,101511
2017-06-11T08:32:48.967Z,101505
2017-06-11T08:35:17.142Z,101511
2017-06-11T08:37:45.285Z,101511
2017-06-11T08:40:13.449Z,101501
2017-06-11T08:42:42.391Z,101507
2017-06-11T08:45:10.554Z,101518
2017-06-11T08:47:38.716Z,101513
2017-06-11T08:50:06.905Z,101518
2017-06-11T08:52:35.069Z,101523
2017-06-11T08:55:03.205Z,101527
2017-06-11T08:57:32.169Z,101523
2017-06-11T09:00:00.336Z,101522
2017-06-11T09:02:28.483Z,101529
2017-06-11T09:04:56.659Z,101533
2017-06-11T09:07:24.816Z,101534
2017-06-11T09:09:52.960Z,101537
2017-06-11T09:12:21.924Z,101535
2017-06-11T09:14:50.065Z,101542
2017-06-11T09:17:18.235Z,101535
2017-06-11T09:19:46.426Z,101543
2017-06-11T09:22:14.566Z,101537
2017-06-11T09:24:43.470Z,101535
2017-06-11T09:27:11.646Z,101529
2017-06-11T09:29:39.816Z,101522
2017-06-11T09:32:07.980Z,101522
2017-06-11T09:34:36.921Z,101524
2017-06-11T09:37:05.063Z,101526
2017-06-11T09:39:33.224Z,101530
2017-06-11T09:42:02.157Z,101532
2017-06-11T09:44:30.299Z,101521
2017-06-11T09:46:58.449Z,101511
2017-06-11T09:49:27.412Z,101517
2017-06-11T09:51:55.558Z,101507
2017-06-11T09:54:23.727Z,101506
2017-06-11T09:56:51.917Z,101503
2017-06-11T09:59:20.084Z,101502
2017-06-11T10:01:48.254Z,101501
2017-06-11T10:04:17.193Z,101498
2017-06-11T10:06:45.354Z,101503
2017-06-11T10:09:13.499Z,101494
2017-06-11T10:11:41.700Z,101493
2017-06-11T10:14:09.865Z,101494
2017-06-11T10:16:38.028Z,101488
2017-06-11T10:19:06.236Z,101481
2017-06-11T10:21:34.404Z,101483
2017-06-11T10:24:02.572Z,101468
2017-06-11T10:26:30.768Z,101478
2017-06-11T10:28:58.951Z,101486
2017-06-11T10:31:27.117Z,101468
2017-06-11T10:33:55.327Z,101457
2017-06-11T10:36:24.252Z,101467
2017-06-11T10:38:52.418Z,101463
2017-06-11T10:41:20.595Z,101455
2017-06-11T10:43:48.800Z,101455
2017-06-11T10:46:16.960Z,101458
2017-06-11T10:48:45.171Z,101451
2017-06-11T10:51:13.892Z,101458
2017-06-11T10:53:42.055Z,101452
2017-06-11T10:56:10.250Z,101455
2017-06-11T10:58:38.390Z,101452
2017-06-11T11:01:06.557Z,101448
2017-06-11T11:03:34.749Z,101440
2017-06-11T11:06:02.913Z,101438
2017-06-11T11:08:31.079Z,101429
2017-06-11T11:10:59.266Z,101430
2017-06-11T11:13:27.505Z,101437
2017-06-11T11:15:55.645Z,101433
2017-06-11T11:18:23.820Z,101431
2017-06-11T11:20:51.961Z,101415
2017-06-11T11:23:20.157Z,101410
2017-06-11T11:25:48.345Z,101424
2017-06-11T11:28:16.486Z,101427
2017-06-11T11:30:44.630Z,101425
2017-06-11T11:33:12.813Z,101409
2017-06-11T11:35:40.969Z,101409
2017-06-11T11:38:09.137Z,101395
2017-06-11T11:40:37.347Z,101397
2017-06-11T11:43:05.517Z,101403
2017-06-11T11:45:33.658Z,101400
2017-06-11T11:48:01.859Z,101390
2017-06-11T11:50:30.023Z,101397
2017-06-11T11:52:58.224Z,101389
2017-06-11T11:55:26.420Z,101384
2017-06-11T11:57:54.581Z,101395
2017-06-11T12:00:22.720Z,101385
2017-06-11T12:02:50.898Z,101374
2017-06-11T12:05:19.060Z,101372
2017-06-11T12:07:47.231Z,101365
2017-06-11T12:10:15.421Z,101361
2017-06-11T12:12:43.565Z,101355
2017-06-11T12:15:11.714Z,101348
2017-06-11T12:17:39.905Z,101341
2017-06-11T12:20:08.073Z,101341
2017-06-11T12:22:36.223Z,101337
2017-06-11T12:25:04.405Z,101331
2017-06-11T12:27:32.555Z,101333
2017-06-11T12:30:00.731Z,101327
2017-06-11T12:32:28.932Z,101326
2017-06-11T12:34:57.099Z,101326
2017-06-11T12:37:25.251Z,101318
2017-06-11T12:39:53.449Z,101316
2017-06-11T12:42:21.609Z,101320
2017-06-11T12:44:49.772Z,101313
2017-06-11T12:47:17.960Z,101307
2017-06-11T12:49:46.151Z,101296
2017-06-11T12:52:14.303Z,101315
2017-06-11T12:54:42.488Z,101297
2017-06-11T12:57:10.669Z,101283
2017-06-11T12:59:38.810Z,101272
2017-06-11T13:02:07.005Z,101277
2017-06-11T13:04:35.167Z,101273
2017-06-11T13:07:03.902Z,101272
2017-06-11T13:09:32.861Z,101281
2017-06-11T13:12:01.035Z,101263
2017-06-11T13:14:29.182Z,101263
2017-06-11T13:16:57.385Z,101255
2017-06-11T13:19:25.553Z,101245
2017-06-11T13:21:53.712Z,101250
2017-06-11T13:24:21.885Z,101246
2017-06-11T13:26:50.049Z,101246
2017-06-11T13:29:18.200Z,101242
2017-06-11T13:31:47.253Z,101231
2017-06-11T13:34:15.424Z,101224
2017-06-11T13:36:43.569Z,101242
2017-06-11T13:39:11.754Z,101226
2017-06-11T13:41:39.912Z,101218
2017-06-11T13:44:08.075Z,101232
2017-06-11T13:46:37.039Z,101226
2017-06-11T13:49:05.205Z,101210
2017-06-11T13:51:33.348Z,101227
2017-06-11T13:54:01.665Z,101221
2017-06-11T13:56:29.839Z,101208
2017-06-11T13:58:57.987Z,101202
2017-06-11T14:01:26.175Z,101188
2017-06-11T14:03:54.322Z,101189
2017-06-11T14:06:22.516Z,101188
2017-06-11T14:08:51.102Z,101178
2017-06-11T14:11:19.246Z,101185
2017-06-11T14:13:47.397Z,101177
2017-06-11T14:16:16.386Z,101171
2017-06-11T14:18:45.317Z,101164
2017-06-11T14:21:13.486Z,101164
2017-06-11T14:23:41.661Z,101154
2017-06-11T14:26:09.823Z,101154
2017-06-11T14:28:37.990Z,101152
2017-06-11T14:31:06.166Z,101145
2017-06-11T14:33:34.343Z,101137
2017-06-11T14:36:02.486Z,101134
2017-06-11T14:38:30.689Z,101138
2017-06-11T14:40:58.834Z,101128
2017-06-11T14:43:26.977Z,101127
2017-06-11T14:45:55.192Z,101139
2017-06-11T14:48:23.360Z,101132
2017-06-11T14:50:51.526Z,101134
2017-06-11T14:53:19.764Z,101119
2017-06-11T14:55:47.922Z,101114
2017-06-11T14:58:16.092Z,101112
2017-06-11T15:00:44.302Z,101103
2017-06-11T15:03:12.453Z,101110
2017-06-11T15:05:40.610Z,101092
2017-06-11T15:08:08.798Z,101089
2017-06-11T15:10:36.949Z,101085
2017-06-11T15:13:05.885Z,101078
2017-06-11T15:15:34.085Z,101091
2017-06-11T15:18:02.242Z,101073
2017-06-11T15:20:30.420Z,101073
2017-06-11T15:22:58.821Z,101075
2017-06-11T15:25:27.001Z,101076
2017-06-11T15:27:55.180Z,101073
2017-06-11T15:30:23.410Z,101074
2017-06-11T15:32:51.569Z,101077
2017-06-11T15:35:19.736Z,101084
2017-06-11T15:37:47.938Z,101092
2017-06-11T15:40:16.094Z,101091
2017-06-11T15:42:44.292Z,101093
2017-06-11T15:45:12.496Z,101107
2017-06-11T15:47:40.717Z,101106
2017-06-11T15:50:08.889Z,101094
2017-06-11T15:52:37.065Z,101089
2017-06-11T15:55:05.235Z,101083
2017-06-11T15:57:33.386Z,101090
2017-06-11T16:00:02.353Z,101087
2017-06-11T16:02:30.520Z,101091
2017-06-11T16:04:58.690Z,101075
2017-06-11T16:07:26.880Z,101061
2017-06-11T16:09:55.045Z,101061
2017-06-11T16:12:23.190Z,101049
2017-06-11T16:14:51.385Z,101038
2017-06-11T16:17:19.529Z,101038
2017-06-11T16:19:47.696Z,101042
2017-06-11T16:22:15.899Z,101045
2017-06-11T16:24:44.067Z,101048
2017-06-11T16:27:12.243Z,101052
2017-06-11T16:29:40.444Z,101038
2017-06-11T16:32:08.607Z,101041
2017-06-11T16:34:36.763Z,101020
2017-06-11T16:37:04.939Z,101025
2017-06-11T16:39:33.081Z,101016
2017-06-11T16:42:01.990Z,101024
2017-06-11T16:44:30.165Z,101016
2017-06-11T16:46:58.333Z,101008
2017-06-11T16:49:26.499Z,101010
2017-06-11T16:51:55.442Z,101019
2017-06-11T16:54:23.608Z,101016
2017-06-11T16:56:51.778Z,101009
2017-06-11T16:59:19.972Z,101006
2017-06-11T17:01:48.116Z,101008
2017-06-11T17:04:16.302Z,101015
2017-06-11T17:06:44.531Z,101023
2017-06-11T17:09:13.508Z,101038
2017-06-11T17:11:41.658Z,101044
2017-06-11T17:14:09.833Z,101051
2017-06-11T17:16:38.004Z,101049
2017-06-11T17:19:06.160Z,101058
2017-06-11T17:21:34.348Z,101063
2017-06-11T17:24:02.498Z,101064
2017-06-11T17:26:30.642Z,101064
2017-06-11T17:28:59.639Z,101073
2017-06-11T17:31:27.797Z,101083
2017-06-11T17:33:55.959Z,101099
2017-06-11T17:36:24.207Z,101095
2017-06-11T17:38:52.398Z,101103
2017-06-11T17:41:20.547Z,101107
2017-06-11T17:43:48.722Z,101106
2017-06-11T17:46:16.897Z,101100
2017-06-11T17:48:45.041Z,101103
2017-06-11T17:51:14.013Z,101091
2017-06-11T17:53:43.153Z,101088
2017-06-11T17:56:11.321Z,101080
2017-06-11T17:58:39.522Z,101083
2017-06-11T18:01:07.803Z,101085
2017-06-11T18:03:35.976Z,101082
2017-06-11T18:06:04.181Z,101088
2017-06-11T18:08:32.349Z,101064
2017-06-11T18:11:00.525Z,101061
2017-06-11T18:13:28.728Z,101070
2017-06-11T18:15:56.891Z,101063
2017-06-11T18:18:25.039Z,101061
2017-06-11T18:20:53.233Z,101061
2017-06-11T18:23:21.419Z,101057
2017-06-11T18:25:49.611Z,101054
2017-06-11T18:28:17.843Z,101029
2017-06-11T18:30:46.009Z,101035
2017-06-11T18:33:14.936Z,101023
2017-06-11T18:35:43.153Z,101013
2017-06-11T18:38:11.305Z,101005
2017-06-11T18:40:39.467Z,101005
2017-06-11T18:43:07.669Z,101014
2017-06-11T18:45:35.929Z,101010
2017-06-11T18:48:04.125Z,100988
2017-06-11T18:50:32.318Z,100978
2017-06-11T18:53:00.493Z,100969
2017-06-11T18:55:28.641Z,100967
2017-06-11T18:57:56.818Z,100961
2017-06-11T19:00:24.985Z,100964
2017-06-11T19:02:53.166Z,100969
2017-06-11T19:05:21.430Z,100967
2017-06-11T19:07:49.577Z,100964
2017-06-11T19:10:17.741Z,100963
2017-06-11T19:12:46.709Z,100978
2017-06-11T19:15:14.896Z,100961
2017-06-11T19:17:43.814Z,100946
2017-06-11T19:20:12.025Z,100936
2017-06-11T19:22:40.193Z,100919
2017-06-11T19:25:08.361Z,100920
2017-06-11T19:27:36.537Z,100911
2017-06-11T19:30:04.682Z,100926
2017-06-11T19:32:32.849Z,100926
2017-06-11T19:35:02.896Z,100925
2017-06-11T19:37:33.131Z,100933
2017-06-11T19:40:04.211Z,100917
2017-06-11T19:42:32.489Z,100893
2017-06-11T19:45:00.653Z,100907
2017-06-11T19:47:28.829Z,100902
2017-06-11T19:49:56.970Z,100892
2017-06-11T19:52:25.897Z,100896
2017-06-11T19:54:54.093Z,100892
2017-06-11T19:57:22.243Z,100881
2017-06-11T19:59:50.387Z,100888
2017-06-11T20:02:19.345Z,100882
2017-06-11T20:04:47.490Z,100881
2017-06-11T20:07:15.633Z,100886
2017-06-11T20:09:44.591Z,100880
2017-06-11T20:12:12.751Z,100864
2017-06-11T20:14:40.919Z,100857
2017-06-11T20:17:09.104Z,100855
2017-06-11T20:19:37.269Z,100855
2017-06-11T20:22:05.436Z,100850
2017-06-11T20:24:33.672Z,100855
2017-06-11T20:27:02.633Z,100850
2017-06-11T20:29:30.792Z,100843
2017-06-11T20:31:59.037Z,100845
2017-06-11T20:34:27.182Z,100844
2017-06-11T20:36:55.329Z,100839
2017-06-11T20:39:23.505Z,100834
2017-06-11T20:41:51.705Z,100833
2017-06-11T20:44:20.643Z,100826
2017-06-11T20:46:48.908Z,100828
2017-06-11T20:49:17.057Z,100828
2017-06-11T20:51:46.018Z,100827
2017-06-11T20:54:14.192Z,100824
2017-06-11T20:56:42.381Z,100822
2017-06-11T20:59:10.530Z,100817
2017-06-11T21:01:38.728Z,100820
2017-06-11T21:04:06.885Z,100808
2017-06-11T21:06:35.062Z,100802
2017-06-11T21:09:03.256Z,100808
2017-06-11T21:11:31.401Z,100801
2017-06-11T21:13:59.550Z,100799
2017-06-11T21:16:27.725Z,100798
2017-06-11T21:18:55.873Z,100793
2017-06-11T21:21:24.808Z,100798
2017-06-11T21:23:53.005Z,100793
2017-06-11T21:26:21.175Z,100784
2017-06-11T21:28:49.348Z,100784
2017-06-11T21:31:17.530Z,100775
2017-06-11T21:33:45.708Z,100772
2017-06-11T21:36:13.878Z,100768
2017-06-11T21:38:42.104Z,100764
2017-06-11T21:41:10.260Z,100757
2017-06-11T21:43:39.188Z,100754
2017-06-11T21:46:07.374Z,100743
2017-06-11T21:48:35.536Z,100742
2017-06-11T21:51:03.678Z,100744
2017-06-11T21:53:32.662Z,100757
2017-06-11T21:56:01.572Z,100757
2017-06-11T21:58:29.736Z,100763
2017-06-11T22:00:58.683Z,100774
2017-06-11T22:03:26.826Z,100785
2017-06-11T22:05:54.987Z,100781
2017-06-11T22:08:23.929Z,100779
2017-06-11T22:10:52.086Z,100782
2017-06-11T22:13:20.244Z,100785
2017-06-11T22:15:48.442Z,100786
2017-06-11T22:18:16.604Z,100792
2017-06-11T22:20:44.745Z,100792
2017-06-11T22:23:13.709Z,100799
2017-06-11T22:25:41.855Z,100805
2017-06-11T22:28:10.002Z,100805
2017-06-11T22:30:38.193Z,100801
2017-06-11T22:33:06.360Z,100804
2017-06-11T22:35:34.520Z,100801
2017-06-11T22:38:02.689Z,100803
2017-06-11T22:40:31.597Z,100789
2017-06-11T22:42:59.759Z,100790
2017-06-11T22:45:27.934Z,100792
2017-06-11T22:47:56.081Z,100792
2017-06-11T22:50:24.244Z,100786
2017-06-11T22:52:52.436Z,100777
2017-06-11T22:55:21.132Z,100772
2017-06-11T22:57:50.057Z,100769
2017-06-11T23:00:18.235Z,100774
2017-06-11T23:02:46.401Z,100762
2017-06-11T23:05:14.565Z,100759
2017-06-11T23:07:42.749Z,100751
2017-06-11T23:10:10.894Z,100745
2017-06-11T23:12:39.806Z,100753
2017-06-11T23:15:08.009Z,100759
2017-06-11T23:17:36.168Z,100742
2017-06-11T23:20:04.309Z,100742
2017-06-11T23:22:32.486Z,100752
2017-06-11T23:25:01.425Z,100768
2017-06-11T23:27:29.569Z,100772
2017-06-11T23:29:57.746Z,100773
2017-06-11T23:32:25.898Z,100782
2017-06-11T23:34:54.837Z,100778
2017-06-11T23:37:23.020Z,100767
2017-06-11T23:39:51.170Z,100768
2017-06-11T23:42:19.343Z,100773
2017-06-11T23:44:47.541Z,100758
2017-06-11T23:47:15.709Z,100775
2017-06-11T23:49:43.879Z,100779
2017-06-11T23:52:12.070Z,100780
2017-06-11T23:54:40.243Z,100785
2017-06-11T23:57:08.401Z,100795
2017-06-11T23:59:36.600Z,100800
